Kenai Municipal Airport Airport (ENA)

 

Airport Diagram
Current Weather/Forecast (VFR Conditions)
METAR PAEN 100653Z AUTO 00000KT 10SM BKN065 14/10 A2974 RMK AO2 SLP073 T01390100 TSNO
TAF PAEN 100536Z 1006/1106 22010KT P6SM VCSH SCT035 FM100800 20004KT P6SM SCT060 BKN100 FM101200 VRB03KT P6SM VCFG SCT005 FM102100 28008KT P6SM VCSH SCT050

All Charts

Inbound Traffic (Arrivals)

No inbound traffic.


Outbound Traffic (Departures)

No outbound traffic.